map of UHE home
UHE - Airport
Location
City:  Uherske Hradiste, Zlín, Czech Republic
Name:Kunovice Airport
ICAO:LKKU
IATA:UHE

Details
Type:Airport (Aerodrome, Airfield)
Use:Public/Civil
Latitude:49°01'46"N (49.029444)
Longitude:17°26'23"E (17.439722)
Datum:WGS 1984
Elevation:581 ft (177 m)
Variation:4.83°E (WMM2015v2 magnetic declination)
0.15° annual change
Runways:3
Longest:6562 × 98 ft (2000 × 30 m), paved

Time
Time Zone:UTC+1 (DST+2)
Local Time:

Weather
METAR:LKKU 041400Z 04006KT 9999 FEW031 SCT037 BKN044 01/M01 Q1030

Related Locations
Nearby:
Farthest:CHT: 11684 mi / 18803 km
Waitangi [Tuuta], CIT, NZ

Find:

   beyond  
but within

Other Information
Maps:
NOTAMs:
Links:
Sources:

  
  • flag of Czech Republic
  • flag of Zlín
  

Sectional Chart

Flight Planning
at skyvector.com

Satellite Image

Google Maps Satellite view

 

Copyright © 2004-2019 Karl L. Swartz. All rights reserved.
The Great Circle Mapper name and logo are trademarks of the Great Circle Mapper.
All other trademarks mentioned herein belong to their respective owners.
Please see credits for attibutions and further copyright information.

  Follow gcmap on Facebook Follow gcmap on Twitter GCmap on LinkedIn

hCard Microformat

Geo Microformat